createdAt,value
2023-01-28T00:00:31.715Z,0
2023-01-28T00:01:31.760Z,0
2023-01-28T00:02:31.844Z,0
2023-01-28T00:03:31.759Z,0
2023-01-28T00:04:31.722Z,0
2023-01-28T00:05:31.725Z,0
2023-01-28T00:06:31.782Z,0
2023-01-28T00:07:31.741Z,0
2023-01-28T00:08:31.731Z,0
2023-01-28T00:09:31.738Z,0
2023-01-28T00:10:31.730Z,0
2023-01-28T00:11:31.742Z,0
2023-01-28T00:12:31.743Z,0
2023-01-28T00:13:31.730Z,0
2023-01-28T00:14:31.730Z,0
2023-01-28T00:15:31.729Z,0
2023-01-28T00:16:31.817Z,0
2023-01-28T00:17:31.738Z,0
2023-01-28T00:18:31.746Z,0
2023-01-28T00:19:31.715Z,0
2023-01-28T00:20:31.724Z,0
2023-01-28T00:21:31.745Z,0
2023-01-28T00:22:31.720Z,0
2023-01-28T00:23:31.709Z,0
2023-01-28T00:24:31.802Z,0
2023-01-28T00:25:31.756Z,0
2023-01-28T00:26:31.741Z,0
2023-01-28T00:27:31.710Z,0
2023-01-28T00:28:31.806Z,0
2023-01-28T00:29:31.716Z,0
2023-01-28T00:30:31.737Z,0
2023-01-28T00:31:31.795Z,0
2023-01-28T00:32:31.713Z,0
2023-01-28T00:33:31.720Z,0
2023-01-28T00:34:31.712Z,0
2023-01-28T00:35:31.715Z,0
2023-01-28T00:36:31.726Z,0
2023-01-28T00:37:31.730Z,0
2023-01-28T00:38:31.715Z,0
2023-01-28T00:39:31.710Z,0
2023-01-28T00:40:31.716Z,0
2023-01-28T00:41:31.728Z,0
2023-01-28T00:42:31.721Z,0
2023-01-28T00:43:31.711Z,0
2023-01-28T00:44:31.722Z,0
2023-01-28T00:45:31.731Z,0
2023-01-28T00:46:31.754Z,0
2023-01-28T00:47:31.737Z,0
2023-01-28T00:48:31.728Z,0
2023-01-28T00:49:31.728Z,0
2023-01-28T00:50:31.737Z,0
2023-01-28T00:51:31.748Z,0
2023-01-28T00:52:31.749Z,0
2023-01-28T00:53:31.750Z,0
2023-01-28T00:54:31.724Z,0
2023-01-28T00:55:31.723Z,0
2023-01-28T00:56:31.733Z,0
2023-01-28T00:57:31.726Z,0
2023-01-28T00:58:31.734Z,0
2023-01-28T00:59:31.743Z,0
2023-01-28T01:00:31.713Z,0
2023-01-28T01:01:31.752Z,0
2023-01-28T01:02:31.757Z,0
2023-01-28T01:03:31.731Z,0
2023-01-28T01:04:31.727Z,0
2023-01-28T01:05:31.726Z,0
2023-01-28T01:06:31.810Z,0
2023-01-28T01:07:31.741Z,0
2023-01-28T01:08:31.730Z,0
2023-01-28T01:09:31.723Z,0
2023-01-28T01:10:31.744Z,0
2023-01-28T01:11:31.738Z,0
2023-01-28T01:12:31.822Z,0
2023-01-28T01:13:31.728Z,0
2023-01-28T01:14:31.739Z,0
2023-01-28T01:15:31.753Z,0
2023-01-28T01:16:31.752Z,0
2023-01-28T01:17:31.735Z,0
2023-01-28T01:18:31.725Z,0
2023-01-28T01:19:31.734Z,0
2023-01-28T01:20:31.724Z,0
2023-01-28T01:21:31.750Z,0
2023-01-28T01:22:31.739Z,0
2023-01-28T01:23:31.736Z,0
2023-01-28T01:24:31.813Z,0
2023-01-28T01:25:31.735Z,0
2023-01-28T01:26:31.756Z,0
2023-01-28T01:27:31.738Z,0
2023-01-28T01:28:31.734Z,0
2023-01-28T01:29:31.727Z,0
2023-01-28T01:30:31.715Z,0
2023-01-28T01:31:32.028Z,0
2023-01-28T01:32:31.725Z,0
2023-01-28T01:33:31.738Z,0
2023-01-28T01:34:31.719Z,0
2023-01-28T01:35:31.722Z,0
2023-01-28T01:36:31.736Z,0
2023-01-28T01:37:31.727Z,0
2023-01-28T01:38:31.724Z,0
2023-01-28T01:39:31.708Z,0
2023-01-28T01:40:31.717Z,0
2023-01-28T01:41:31.726Z,0
2023-01-28T01:42:31.727Z,0
2023-01-28T01:43:31.714Z,0
2023-01-28T01:44:31.715Z,0
2023-01-28T01:45:31.712Z,0
2023-01-28T01:46:31.750Z,0
2023-01-28T01:47:31.711Z,0
2023-01-28T01:48:31.735Z,0
2023-01-28T01:49:31.707Z,0
2023-01-28T01:50:31.715Z,0
2023-01-28T01:51:31.733Z,0
2023-01-28T01:52:31.719Z,0
2023-01-28T01:53:31.713Z,0
2023-01-28T01:54:31.706Z,0
2023-01-28T01:55:31.722Z,0
2023-01-28T01:56:31.732Z,0
2023-01-28T01:57:31.717Z,0
2023-01-28T01:58:31.729Z,0
2023-01-28T01:59:31.735Z,0
2023-01-28T02:00:31.711Z,0
2023-01-28T02:01:31.745Z,0
2023-01-28T02:02:31.775Z,0
2023-01-28T02:03:31.901Z,0
2023-01-28T02:04:31.723Z,0
2023-01-28T02:05:31.730Z,0
2023-01-28T02:06:31.741Z,0
2023-01-28T02:07:31.844Z,0
2023-01-28T02:08:31.730Z,0
2023-01-28T02:09:31.767Z,0
2023-01-28T02:10:31.726Z,0
2023-01-28T02:11:31.733Z,0
2023-01-28T02:12:31.728Z,0
2023-01-28T02:13:31.735Z,0
2023-01-28T02:14:32.146Z,0
2023-01-28T02:15:31.728Z,0
2023-01-28T02:16:31.773Z,0
2023-01-28T02:17:31.735Z,0
2023-01-28T02:18:31.710Z,0
2023-01-28T02:19:31.729Z,0
2023-01-28T02:20:31.729Z,0
2023-01-28T02:21:31.760Z,0
2023-01-28T02:22:31.757Z,0
2023-01-28T02:23:31.730Z,0
2023-01-28T02:24:31.750Z,0
2023-01-28T02:25:31.733Z,0
2023-01-28T02:26:31.751Z,0
2023-01-28T02:27:31.735Z,0
2023-01-28T02:28:31.731Z,0
2023-01-28T02:29:31.738Z,0
2023-01-28T02:30:31.849Z,0
2023-01-28T02:31:31.833Z,0
2023-01-28T02:32:31.722Z,0
2023-01-28T02:33:31.730Z,0
2023-01-28T02:34:31.737Z,0
2023-01-28T02:35:31.735Z,0
2023-01-28T02:36:31.753Z,0
2023-01-28T02:37:31.748Z,0
2023-01-28T02:38:31.755Z,0
2023-01-28T02:39:31.730Z,0
2023-01-28T02:40:31.839Z,0
2023-01-28T02:41:31.757Z,0
2023-01-28T02:42:31.737Z,0
2023-01-28T02:43:31.725Z,0
2023-01-28T02:44:31.721Z,0
2023-01-28T02:45:31.717Z,0
2023-01-28T02:46:31.796Z,0
2023-01-28T02:47:31.764Z,0
2023-01-28T02:48:31.715Z,0
2023-01-28T02:49:31.713Z,0
2023-01-28T02:50:31.711Z,0
2023-01-28T02:51:31.725Z,0
2023-01-28T02:52:31.728Z,0
2023-01-28T02:53:31.711Z,0
2023-01-28T02:54:31.714Z,0
2023-01-28T02:55:31.724Z,0
2023-01-28T02:56:31.725Z,0
2023-01-28T02:57:31.716Z,0
2023-01-28T02:58:31.713Z,0
2023-01-28T02:59:31.713Z,0
2023-01-28T03:00:31.714Z,0
2023-01-28T03:01:31.757Z,0
2023-01-28T03:02:31.746Z,0
2023-01-28T03:03:31.722Z,0
2023-01-28T03:04:31.708Z,0
2023-01-28T03:05:31.714Z,0
2023-01-28T03:06:31.733Z,0
2023-01-28T03:07:31.728Z,0
2023-01-28T03:08:31.714Z,0
2023-01-28T03:09:31.710Z,0
2023-01-28T03:10:31.713Z,0
2023-01-28T03:11:31.741Z,0
2023-01-28T03:12:31.741Z,0
2023-01-28T03:13:31.726Z,0
2023-01-28T03:14:31.736Z,0
2023-01-28T03:15:31.740Z,0
2023-01-28T03:16:31.753Z,0
2023-01-28T03:17:31.727Z,0
2023-01-28T03:18:31.739Z,0
2023-01-28T03:19:31.733Z,0
2023-01-28T03:20:31.732Z,0
2023-01-28T03:21:31.740Z,0
2023-01-28T03:22:31.750Z,0
2023-01-28T03:23:31.740Z,0
2023-01-28T03:24:31.729Z,0
2023-01-28T03:25:31.740Z,0
2023-01-28T03:26:31.748Z,0
2023-01-28T03:27:31.750Z,0
2023-01-28T03:28:31.741Z,0
2023-01-28T03:29:31.733Z,0
2023-01-28T03:30:31.779Z,0
2023-01-28T03:31:31.752Z,0
2023-01-28T03:32:31.737Z,0
2023-01-28T03:33:31.744Z,0
2023-01-28T03:34:31.736Z,0
2023-01-28T03:35:31.731Z,0
2023-01-28T03:36:31.746Z,0
2023-01-28T03:37:31.747Z,0
2023-01-28T03:38:31.722Z,0
2023-01-28T03:39:31.751Z,0
2023-01-28T03:40:31.730Z,0
2023-01-28T03:41:31.753Z,0
2023-01-28T03:42:31.733Z,0
2023-01-28T03:43:31.742Z,0
2023-01-28T03:44:31.733Z,0
2023-01-28T03:45:31.729Z,0
2023-01-28T03:46:31.885Z,0
2023-01-28T03:47:31.733Z,0
2023-01-28T03:48:31.742Z,0
2023-01-28T03:49:31.727Z,0
2023-01-28T03:50:31.726Z,0
2023-01-28T03:51:31.753Z,0
2023-01-28T03:52:31.740Z,0
2023-01-28T03:53:31.729Z,0
2023-01-28T03:54:31.729Z,0
2023-01-28T03:55:31.744Z,0
2023-01-28T03:56:31.725Z,0
2023-01-28T03:57:31.715Z,0
2023-01-28T03:58:31.712Z,0
2023-01-28T03:59:31.712Z,0
2023-01-28T04:00:31.719Z,0
2023-01-28T04:01:31.749Z,0
2023-01-28T04:02:31.755Z,0
2023-01-28T04:03:31.721Z,0
2023-01-28T04:04:31.713Z,0
2023-01-28T04:05:31.727Z,0
2023-01-28T04:06:31.721Z,0
2023-01-28T04:07:31.731Z,0
2023-01-28T04:08:31.717Z,0
2023-01-28T04:09:31.716Z,0
2023-01-28T04:10:31.722Z,0
2023-01-28T04:11:31.749Z,0
2023-01-28T04:12:31.711Z,0
2023-01-28T04:13:31.712Z,0
2023-01-28T04:14:31.713Z,0
2023-01-28T04:15:31.711Z,0
2023-01-28T04:16:31.736Z,0
2023-01-28T04:17:31.718Z,0
2023-01-28T04:18:31.716Z,0
2023-01-28T04:19:31.750Z,0
2023-01-28T04:20:31.743Z,0
2023-01-28T04:21:31.833Z,0
2023-01-28T04:22:31.745Z,0
2023-01-28T04:23:31.731Z,0
2023-01-28T04:24:31.799Z,0
2023-01-28T04:25:31.731Z,0
2023-01-28T04:26:31.747Z,0
2023-01-28T04:27:31.727Z,0
2023-01-28T04:28:31.725Z,0
2023-01-28T04:29:31.788Z,0
2023-01-28T04:30:31.806Z,0
2023-01-28T04:31:31.821Z,0
2023-01-28T04:32:31.725Z,0
2023-01-28T04:33:31.726Z,0
2023-01-28T04:34:31.723Z,0
2023-01-28T04:35:31.714Z,0
2023-01-28T04:36:31.737Z,0
2023-01-28T04:37:31.746Z,0
2023-01-28T04:38:31.729Z,0
2023-01-28T04:39:31.731Z,0
2023-01-28T04:40:31.728Z,0
2023-01-28T04:41:31.754Z,0
2023-01-28T04:42:31.736Z,0
2023-01-28T04:43:31.726Z,0
2023-01-28T04:44:31.733Z,0
2023-01-28T04:45:31.742Z,0
2023-01-28T04:46:31.814Z,0
2023-01-28T04:47:31.739Z,0
2023-01-28T04:48:31.737Z,0
2023-01-28T04:49:31.766Z,0
2023-01-28T04:50:31.727Z,0
2023-01-28T04:51:31.758Z,0
2023-01-28T04:52:31.753Z,0
2023-01-28T04:53:31.733Z,0
2023-01-28T04:54:31.728Z,0
2023-01-28T04:55:31.719Z,0
2023-01-28T04:56:31.745Z,0
2023-01-28T04:57:31.739Z,0
2023-01-28T04:58:31.743Z,0
2023-01-28T04:59:31.730Z,0
2023-01-28T05:00:31.722Z,0
2023-01-28T05:01:31.725Z,0
2023-01-28T05:02:31.714Z,0
2023-01-28T05:03:31.720Z,0
2023-01-28T05:04:31.706Z,0
2023-01-28T05:05:31.714Z,0
2023-01-28T05:06:31.729Z,0
2023-01-28T05:07:31.744Z,0
2023-01-28T05:08:31.710Z,0
2023-01-28T05:09:31.720Z,0
2023-01-28T05:10:31.744Z,0
2023-01-28T05:11:31.739Z,0
2023-01-28T05:12:31.751Z,0
2023-01-28T05:13:31.716Z,0
2023-01-28T05:14:31.714Z,0
2023-01-28T05:15:31.713Z,0
2023-01-28T05:16:31.726Z,0
2023-01-28T05:17:31.779Z,0
2023-01-28T05:18:31.709Z,0
2023-01-28T05:19:31.713Z,0
2023-01-28T05:20:31.747Z,0
2023-01-28T05:21:31.726Z,0
2023-01-28T05:22:31.727Z,0
2023-01-28T05:23:31.725Z,0
2023-01-28T05:24:31.730Z,0
2023-01-28T05:25:31.708Z,0
2023-01-28T05:26:31.748Z,0
2023-01-28T05:27:31.738Z,0
2023-01-28T05:28:31.739Z,0
2023-01-28T05:29:31.720Z,0
2023-01-28T05:30:31.802Z,0
2023-01-28T05:31:31.749Z,0
2023-01-28T05:32:31.775Z,0
2023-01-28T05:33:31.733Z,0
2023-01-28T05:34:31.736Z,0
2023-01-28T05:35:31.728Z,0
2023-01-28T05:36:31.744Z,0
2023-01-28T05:37:31.797Z,0
2023-01-28T05:38:31.731Z,0
2023-01-28T05:39:31.775Z,0
2023-01-28T05:40:31.718Z,0
2023-01-28T05:41:31.730Z,0
2023-01-28T05:42:31.738Z,0
2023-01-28T05:43:31.722Z,0
2023-01-28T05:44:31.722Z,0
2023-01-28T05:45:31.787Z,0
2023-01-28T05:46:31.819Z,0
2023-01-28T05:47:31.717Z,0
2023-01-28T05:48:31.798Z,0
2023-01-28T05:49:31.731Z,0
2023-01-28T05:50:31.735Z,0
2023-01-28T05:51:31.768Z,0
2023-01-28T05:52:31.751Z,0
2023-01-28T05:53:31.733Z,0
2023-01-28T05:54:31.807Z,0
2023-01-28T05:55:31.731Z,0
2023-01-28T05:56:31.748Z,0
2023-01-28T05:57:31.731Z,0
2023-01-28T05:58:31.711Z,0
2023-01-28T05:59:31.718Z,0
2023-01-28T06:00:31.717Z,0
2023-01-28T06:01:31.744Z,0
2023-01-28T06:02:31.838Z,0
2023-01-28T06:03:31.742Z,0
2023-01-28T06:04:31.730Z,0
2023-01-28T06:05:31.799Z,0
2023-01-28T06:06:31.737Z,0
2023-01-28T06:07:31.747Z,0
2023-01-28T06:08:31.711Z,0
2023-01-28T06:09:31.718Z,0
2023-01-28T06:10:31.707Z,0
2023-01-28T06:11:31.728Z,0
2023-01-28T06:12:31.719Z,0
2023-01-28T06:13:31.713Z,0
2023-01-28T06:14:31.708Z,0
2023-01-28T06:15:31.755Z,0
2023-01-28T06:16:31.726Z,0
2023-01-28T06:17:31.712Z,0
2023-01-28T06:18:31.708Z,0
2023-01-28T06:19:31.713Z,0
2023-01-28T06:20:31.713Z,0
2023-01-28T06:21:31.729Z,1
2023-01-28T06:22:31.729Z,1
2023-01-28T06:23:31.705Z,1
2023-01-28T06:24:31.728Z,3
2023-01-28T06:25:31.715Z,3
2023-01-28T06:26:31.727Z,5
2023-01-28T06:27:31.708Z,5
2023-01-28T06:28:31.729Z,7
2023-01-28T06:29:31.712Z,9
2023-01-28T06:30:31.763Z,9
2023-01-28T06:31:31.812Z,12
2023-01-28T06:32:31.707Z,14
2023-01-28T06:33:31.723Z,16
2023-01-28T06:34:31.725Z,18
2023-01-28T06:35:31.728Z,22
2023-01-28T06:36:31.745Z,25
2023-01-28T06:37:31.798Z,27
2023-01-28T06:38:31.736Z,29
2023-01-28T06:39:31.731Z,31
2023-01-28T06:40:31.709Z,31
2023-01-28T06:41:31.751Z,38
2023-01-28T06:42:31.729Z,40
2023-01-28T06:43:31.736Z,42
2023-01-28T06:44:31.732Z,46
2023-01-28T06:45:31.904Z,49
2023-01-28T06:46:31.861Z,57
2023-01-28T06:47:31.730Z,60
2023-01-28T06:48:31.733Z,66
2023-01-28T06:49:31.737Z,71
2023-01-28T06:50:31.710Z,71
2023-01-28T06:51:31.733Z,84
2023-01-28T06:52:31.723Z,92
2023-01-28T06:53:31.737Z,95
2023-01-28T06:54:31.738Z,103
2023-01-28T06:55:31.768Z,106
2023-01-28T06:56:31.746Z,110
2023-01-28T06:57:31.733Z,116
2023-01-28T06:58:31.722Z,119
2023-01-28T06:59:31.714Z,125
2023-01-28T07:00:31.712Z,125
2023-01-28T07:01:31.776Z,130
2023-01-28T07:02:31.741Z,132
2023-01-28T07:03:31.735Z,136
2023-01-28T07:04:31.736Z,141
2023-01-28T07:05:31.734Z,147
2023-01-28T07:06:31.745Z,160
2023-01-28T07:07:31.745Z,167
2023-01-28T07:08:31.728Z,167
2023-01-28T07:09:31.736Z,184
2023-01-28T07:10:31.711Z,184
2023-01-28T07:11:31.765Z,211
2023-01-28T07:12:31.727Z,224
2023-01-28T07:13:31.734Z,237
2023-01-28T07:14:31.718Z,258
2023-01-28T07:15:31.735Z,270
2023-01-28T07:16:31.750Z,291
2023-01-28T07:17:31.810Z,313
2023-01-28T07:18:31.731Z,329
2023-01-28T07:19:31.742Z,329
2023-01-28T07:20:31.713Z,350
2023-01-28T07:21:31.732Z,376
2023-01-28T07:22:31.724Z,405
2023-01-28T07:23:31.727Z,423
2023-01-28T07:24:31.736Z,449
2023-01-28T07:25:31.755Z,457
2023-01-28T07:26:31.737Z,490
2023-01-28T07:27:31.806Z,554
2023-01-28T07:28:31.714Z,569
2023-01-28T07:29:31.709Z,621
2023-01-28T07:30:31.714Z,621
2023-01-28T07:31:31.888Z,700
2023-01-28T07:32:31.728Z,707
2023-01-28T07:33:31.717Z,740
2023-01-28T07:34:31.711Z,790
2023-01-28T07:35:31.709Z,816
2023-01-28T07:36:31.731Z,884
2023-01-28T07:37:31.722Z,930
2023-01-28T07:38:31.728Z,917
2023-01-28T07:39:31.729Z,917
2023-01-28T07:40:31.716Z,917
2023-01-28T07:41:31.725Z,999
2023-01-28T07:42:31.720Z,1006
2023-01-28T07:43:31.725Z,958
2023-01-28T07:44:31.708Z,951
2023-01-28T07:45:31.722Z,973
2023-01-28T07:46:31.751Z,1024
2023-01-28T07:47:31.804Z,1037
2023-01-28T07:48:31.726Z,1019
2023-01-28T07:49:31.746Z,986
2023-01-28T07:50:31.709Z,986
2023-01-28T07:51:31.744Z,967
2023-01-28T07:52:31.790Z,951
2023-01-28T07:53:31.750Z,978
2023-01-28T07:54:31.738Z,1002
2023-01-28T07:55:31.727Z,993
2023-01-28T07:56:31.758Z,1021
2023-01-28T07:57:31.732Z,1083
2023-01-28T07:58:31.722Z,1083
2023-01-28T07:59:31.712Z,1137
2023-01-28T08:00:31.720Z,1137
2023-01-28T08:01:31.867Z,1157
2023-01-28T08:02:31.738Z,1126
2023-01-28T08:03:31.725Z,1133
2023-01-28T08:04:31.868Z,1164
2023-01-28T08:05:31.860Z,1161
2023-01-28T08:06:31.749Z,1139
2023-01-28T08:07:31.730Z,1120
2023-01-28T08:08:31.723Z,1120
2023-01-28T08:09:31.740Z,1205
2023-01-28T08:10:31.714Z,1205
2023-01-28T08:11:31.771Z,1194
2023-01-28T08:12:31.725Z,1212
2023-01-28T08:13:31.748Z,1222
2023-01-28T08:14:31.753Z,1257
2023-01-28T08:15:34.063Z,1288
2023-01-28T08:16:31.738Z,1323
2023-01-28T08:17:31.792Z,1358
2023-01-28T08:18:31.733Z,1422
2023-01-28T08:19:31.734Z,1323
2023-01-28T08:20:31.745Z,1323
2023-01-28T08:21:31.737Z,1347
2023-01-28T08:22:31.735Z,1422
2023-01-28T08:23:31.729Z,1432
2023-01-28T08:24:31.832Z,1515
2023-01-28T08:25:31.710Z,1448
2023-01-28T08:26:31.740Z,1561
2023-01-28T08:27:31.740Z,1511
2023-01-28T08:28:31.731Z,1590
2023-01-28T08:29:31.729Z,1590
2023-01-28T08:30:31.734Z,1623
2023-01-28T08:31:31.767Z,1738
2023-01-28T08:32:31.720Z,1675
2023-01-28T08:33:31.718Z,1657
2023-01-28T08:34:31.707Z,1763
2023-01-28T08:35:31.736Z,1894
2023-01-28T08:36:31.750Z,1883
2023-01-28T08:37:31.729Z,1797
2023-01-28T08:38:31.720Z,1918
2023-01-28T08:39:31.711Z,1800
2023-01-28T08:40:31.711Z,1800
2023-01-28T08:41:31.724Z,1837
2023-01-28T08:42:31.715Z,1881
2023-01-28T08:43:31.718Z,2018
2023-01-28T08:44:31.714Z,1957
2023-01-28T08:45:31.712Z,2042
2023-01-28T08:46:31.874Z,2038
2023-01-28T08:47:31.711Z,2029
2023-01-28T08:48:31.716Z,1972
2023-01-28T08:49:31.708Z,2007
2023-01-28T08:50:31.711Z,2007
2023-01-28T08:51:31.731Z,2009
2023-01-28T08:52:31.732Z,2027
2023-01-28T08:53:31.709Z,1966
2023-01-28T08:54:31.708Z,1878
2023-01-28T08:55:31.716Z,1867
2023-01-28T08:56:31.726Z,1900
2023-01-28T08:57:31.712Z,1826
2023-01-28T08:58:31.705Z,1839
2023-01-28T08:59:31.725Z,1892
2023-01-28T09:00:31.727Z,1892
2023-01-28T09:01:31.779Z,1841
2023-01-28T09:02:32.472Z,1880
2023-01-28T09:03:31.826Z,1898
2023-01-28T09:04:31.727Z,1909
2023-01-28T09:05:31.730Z,1878
2023-01-28T09:06:31.749Z,1916
2023-01-28T09:07:31.740Z,1939
2023-01-28T09:08:31.737Z,1939
2023-01-28T09:09:31.731Z,1972
2023-01-28T09:10:31.711Z,1972
2023-01-28T09:11:31.743Z,1981
2023-01-28T09:12:31.719Z,2055
2023-01-28T09:13:31.728Z,2128
2023-01-28T09:14:31.735Z,2125
2023-01-28T09:15:31.727Z,2130
2023-01-28T09:16:31.765Z,2156
2023-01-28T09:17:31.726Z,2243
2023-01-28T09:18:31.732Z,2304
2023-01-28T09:19:31.740Z,2333
2023-01-28T09:20:31.711Z,2333
2023-01-28T09:21:31.753Z,2313
2023-01-28T09:22:31.739Z,2324
2023-01-28T09:23:31.728Z,2381
2023-01-28T09:24:31.761Z,2425
2023-01-28T09:25:31.725Z,2458
2023-01-28T09:26:31.750Z,2484
2023-01-28T09:27:31.747Z,2490
2023-01-28T09:28:31.733Z,2455
2023-01-28T09:29:31.731Z,2420
2023-01-28T09:30:31.754Z,2420
2023-01-28T09:31:31.783Z,2486
2023-01-28T09:32:31.785Z,2484
2023-01-28T09:33:31.738Z,2418
2023-01-28T09:34:31.710Z,2418
2023-01-28T09:35:31.759Z,2471
2023-01-28T09:36:31.741Z,2573
2023-01-28T09:37:31.754Z,2591
2023-01-28T09:38:31.811Z,2591
2023-01-28T09:39:31.733Z,2663
2023-01-28T09:40:31.719Z,2663
2023-01-28T09:41:31.745Z,2633
2023-01-28T09:42:31.730Z,2633
2023-01-28T09:43:31.718Z,2632
2023-01-28T09:44:31.734Z,2633
2023-01-28T09:45:31.714Z,2657
2023-01-28T09:46:31.771Z,2654
2023-01-28T09:47:31.709Z,2622
2023-01-28T09:48:31.725Z,2580
2023-01-28T09:49:31.726Z,2621
2023-01-28T09:50:31.714Z,2678
2023-01-28T09:51:31.727Z,2700
2023-01-28T09:52:31.733Z,2711
2023-01-28T09:53:31.720Z,2777
2023-01-28T09:54:31.720Z,2768
2023-01-28T09:55:31.717Z,2761
2023-01-28T09:56:31.731Z,2762
2023-01-28T09:57:31.804Z,2862
2023-01-28T09:58:31.796Z,2987
2023-01-28T09:59:31.713Z,2967
2023-01-28T10:00:31.801Z,2967
2023-01-28T10:01:31.741Z,3059
2023-01-28T10:02:31.709Z,3135
2023-01-28T10:03:31.788Z,3065
2023-01-28T10:04:31.721Z,3205
2023-01-28T10:05:31.710Z,3338
2023-01-28T10:06:31.730Z,3393
2023-01-28T10:07:31.726Z,3341
2023-01-28T10:08:31.715Z,3341
2023-01-28T10:09:31.773Z,3385
2023-01-28T10:10:31.713Z,3385
2023-01-28T10:11:31.742Z,3459
2023-01-28T10:12:31.735Z,3470
2023-01-28T10:13:31.733Z,3642
2023-01-28T10:14:31.733Z,3662
2023-01-28T10:15:31.725Z,3750
2023-01-28T10:16:31.742Z,3891
2023-01-28T10:17:31.821Z,3802
2023-01-28T10:18:31.746Z,3771
2023-01-28T10:19:31.726Z,3679
2023-01-28T10:20:31.707Z,3679
2023-01-28T10:21:31.745Z,3868
2023-01-28T10:22:31.744Z,4064
2023-01-28T10:23:31.734Z,4163
2023-01-28T10:24:31.771Z,4167
2023-01-28T10:25:31.725Z,4202
2023-01-28T10:26:31.739Z,4137
2023-01-28T10:27:31.742Z,4132
2023-01-28T10:28:31.734Z,4032
2023-01-28T10:29:31.738Z,3891
2023-01-28T10:30:31.751Z,3891
2023-01-28T10:31:31.870Z,3824
2023-01-28T10:32:31.732Z,3655
2023-01-28T10:33:31.730Z,3756
2023-01-28T10:34:31.724Z,3902
2023-01-28T10:35:31.729Z,3782
2023-01-28T10:36:31.757Z,3691
2023-01-28T10:37:31.750Z,3702
2023-01-28T10:38:31.733Z,3940
2023-01-28T10:39:31.735Z,3996
2023-01-28T10:40:31.713Z,3996
2023-01-28T10:41:31.746Z,4193
2023-01-28T10:42:31.724Z,4176
2023-01-28T10:43:31.726Z,4062
2023-01-28T10:44:31.734Z,4091
2023-01-28T10:45:31.785Z,4176
2023-01-28T10:46:31.762Z,4202
2023-01-28T10:47:31.724Z,4268
2023-01-28T10:48:31.727Z,4250
2023-01-28T10:49:31.739Z,4425
2023-01-28T10:50:31.744Z,4425
2023-01-28T10:51:31.745Z,4512
2023-01-28T10:52:31.751Z,4514
2023-01-28T10:53:31.726Z,4561
2023-01-28T10:54:31.744Z,4561
2023-01-28T10:55:31.717Z,4624
2023-01-28T10:56:31.730Z,4650
2023-01-28T10:57:31.709Z,4654
2023-01-28T10:58:31.722Z,4694
2023-01-28T10:59:31.761Z,4805
2023-01-28T11:00:31.721Z,4805
2023-01-28T11:01:31.738Z,4827
2023-01-28T11:02:31.798Z,4823
2023-01-28T11:03:31.716Z,4788
2023-01-28T11:04:31.736Z,4814
2023-01-28T11:05:31.735Z,4821
2023-01-28T11:06:31.730Z,4803
2023-01-28T11:07:31.728Z,4781
2023-01-28T11:08:31.718Z,4781
2023-01-28T11:09:31.718Z,4692
2023-01-28T11:10:31.717Z,4692
2023-01-28T11:11:31.727Z,4650
2023-01-28T11:12:31.740Z,4635
2023-01-28T11:13:31.719Z,4679
2023-01-28T11:14:31.718Z,4707
2023-01-28T11:15:31.711Z,4727
2023-01-28T11:16:31.728Z,4742
2023-01-28T11:17:31.774Z,4725
2023-01-28T11:18:31.739Z,4779
2023-01-28T11:19:31.724Z,4808
2023-01-28T11:20:31.716Z,4808
2023-01-28T11:21:31.742Z,4827
2023-01-28T11:22:31.727Z,4796
2023-01-28T11:23:31.723Z,4770
2023-01-28T11:24:31.808Z,4740
2023-01-28T11:25:31.754Z,4711
2023-01-28T11:26:31.739Z,4733
2023-01-28T11:27:31.746Z,4652
2023-01-28T11:28:31.748Z,4626
2023-01-28T11:29:31.735Z,4639
2023-01-28T11:30:31.727Z,4639
2023-01-28T11:31:31.805Z,4666
2023-01-28T11:32:31.728Z,4698
2023-01-28T11:33:31.731Z,4683
2023-01-28T11:34:31.730Z,4635
2023-01-28T11:35:31.739Z,4619
2023-01-28T11:36:31.821Z,4643
2023-01-28T11:37:31.839Z,4602
2023-01-28T11:38:31.736Z,4396
2023-01-28T11:39:31.738Z,4285
2023-01-28T11:40:31.720Z,4285
2023-01-28T11:41:31.742Z,4117
2023-01-28T11:42:31.742Z,3918
2023-01-28T11:43:31.746Z,3798
2023-01-28T11:44:31.731Z,3721
2023-01-28T11:45:31.780Z,3749
2023-01-28T11:46:31.769Z,3693
2023-01-28T11:47:31.733Z,3579
2023-01-28T11:48:31.738Z,3461
2023-01-28T11:49:31.720Z,3336
2023-01-28T11:50:31.712Z,3336
2023-01-28T11:51:31.760Z,3140
2023-01-28T11:52:48.685Z,3085
2023-01-28T11:53:31.710Z,3011
2023-01-28T11:54:31.719Z,2949
2023-01-28T11:55:31.788Z,2927
2023-01-28T11:56:31.733Z,2950
2023-01-28T11:57:31.725Z,2995
2023-01-28T11:58:31.725Z,3009
2023-01-28T11:59:31.737Z,3052
2023-01-28T12:00:31.719Z,3052
2023-01-28T12:01:31.744Z,3039
2023-01-28T12:02:31.736Z,3004
2023-01-28T12:03:31.731Z,2950
2023-01-28T12:04:31.761Z,2919
2023-01-28T12:05:31.728Z,2890
2023-01-28T12:06:31.761Z,2856
2023-01-28T12:07:31.729Z,2856
2023-01-28T12:08:31.716Z,2805
2023-01-28T12:09:31.720Z,2805
2023-01-28T12:10:31.716Z,2764
2023-01-28T12:11:31.733Z,2772
2023-01-28T12:12:31.708Z,2750
2023-01-28T12:13:31.928Z,2709
2023-01-28T12:14:31.714Z,2703
2023-01-28T12:15:31.707Z,2709
2023-01-28T12:16:31.736Z,2702
2023-01-28T12:17:31.712Z,2694
2023-01-28T12:18:32.181Z,2661
2023-01-28T12:19:31.738Z,2624
2023-01-28T12:20:32.086Z,2624
2023-01-28T12:21:31.726Z,2678
2023-01-28T12:22:31.725Z,2724
2023-01-28T12:23:31.718Z,2744
2023-01-28T12:24:31.789Z,2748
2023-01-28T12:25:31.718Z,2757
2023-01-28T12:26:31.725Z,2700
2023-01-28T12:27:31.708Z,2643
2023-01-28T12:28:31.713Z,2609
2023-01-28T12:29:31.714Z,2573
2023-01-28T12:30:31.710Z,2573
2023-01-28T12:31:31.817Z,2591
2023-01-28T12:32:31.729Z,2646
2023-01-28T12:33:31.720Z,2715
2023-01-28T12:34:32.014Z,2737
2023-01-28T12:35:31.727Z,2696
2023-01-28T12:37:24.119Z,2674
2023-01-28T12:38:22.448Z,2621
2023-01-28T12:39:22.436Z,2606
2023-01-28T12:40:22.585Z,2606
2023-01-28T12:41:22.432Z,2530
2023-01-28T12:42:22.411Z,2508
2023-01-28T12:43:22.423Z,2455
2023-01-28T12:44:22.415Z,2425
2023-01-28T12:45:22.420Z,2396
2023-01-28T12:46:22.415Z,2427
2023-01-28T12:47:22.488Z,2519
2023-01-28T12:48:22.419Z,2608
2023-01-28T12:49:22.425Z,2604
2023-01-28T12:50:22.411Z,2604
2023-01-28T12:51:22.409Z,2534
2023-01-28T12:52:24.214Z,2523
2023-01-28T12:53:22.423Z,2521
2023-01-28T12:54:22.409Z,2521
2023-01-28T12:55:22.445Z,2512
2023-01-28T12:56:22.415Z,2488
2023-01-28T12:57:22.433Z,2445
2023-01-28T12:58:22.408Z,2425
2023-01-28T12:59:22.421Z,2368
2023-01-28T13:00:22.406Z,2368
2023-01-28T13:01:22.407Z,2353
2023-01-28T13:02:22.466Z,2322
2023-01-28T13:03:22.649Z,2316
2023-01-28T13:04:22.399Z,2331
2023-01-28T13:05:22.414Z,2337
2023-01-28T13:06:22.413Z,2344
2023-01-28T13:07:22.427Z,2335
2023-01-28T13:08:22.414Z,2335
2023-01-28T13:09:22.407Z,2315
2023-01-28T13:10:22.421Z,2315
2023-01-28T13:11:22.386Z,2326
2023-01-28T13:12:22.425Z,2421
2023-01-28T13:13:22.416Z,2444
2023-01-28T13:14:22.407Z,2447
2023-01-28T13:15:22.419Z,2374
2023-01-28T13:16:35.931Z,2313
2023-01-28T13:17:22.434Z,2232
2023-01-28T13:18:22.386Z,2232
2023-01-28T13:19:22.406Z,2213
2023-01-28T13:20:22.432Z,2197
2023-01-28T13:21:22.393Z,2224
2023-01-28T13:22:22.398Z,2259
2023-01-28T13:23:22.416Z,2307
2023-01-28T13:24:22.422Z,2276
2023-01-28T13:25:22.386Z,2285
2023-01-28T13:26:24.685Z,2309
2023-01-28T13:27:22.437Z,2311
2023-01-28T13:28:22.386Z,2263
2023-01-28T13:29:22.393Z,2215
2023-01-28T13:30:22.500Z,2206
2023-01-28T13:31:22.397Z,2169
2023-01-28T13:32:22.425Z,2125
2023-01-28T13:33:22.391Z,2093
2023-01-28T13:34:22.389Z,2069
2023-01-28T13:35:22.392Z,2025
2023-01-28T13:36:22.396Z,1974
2023-01-28T13:37:22.398Z,1931
2023-01-28T13:38:22.425Z,1929
2023-01-28T13:39:22.394Z,1920
2023-01-28T13:40:22.392Z,1902
2023-01-28T13:41:22.388Z,1900
2023-01-28T13:42:22.413Z,1907
2023-01-28T13:43:22.397Z,1907
2023-01-28T13:44:22.390Z,1878
2023-01-28T13:45:22.380Z,1852
2023-01-28T13:46:22.422Z,1837
2023-01-28T13:47:22.420Z,1826
2023-01-28T13:48:22.400Z,1824
2023-01-28T13:49:22.410Z,1813
2023-01-28T13:50:22.386Z,1813
2023-01-28T13:51:22.413Z,1734
2023-01-28T13:52:22.410Z,1695
2023-01-28T13:53:22.415Z,1673
2023-01-28T13:54:22.405Z,1664
2023-01-28T13:55:41.270Z,1655
2023-01-28T13:56:22.404Z,1647
2023-01-28T13:57:22.429Z,1631
2023-01-28T13:58:22.399Z,1629
2023-01-28T13:59:22.403Z,1592
2023-01-28T14:00:25.890Z,1592
2023-01-28T14:01:22.460Z,1491
2023-01-28T14:02:22.596Z,1454